createdAt,value
2022-08-05T00:01:00.994Z,9.13
2022-08-05T00:04:23.731Z,5.97
2022-08-05T00:07:59.957Z,7.57
2022-08-05T00:10:52.872Z,10.43
2022-08-05T00:13:56.196Z,10.93
2022-08-05T00:17:01.825Z,6.32
2022-08-05T00:20:07.087Z,6.80
2022-08-05T00:23:12.598Z,5.50
2022-08-05T00:26:17.108Z,7.45
2022-08-05T00:29:22.420Z,6.50
2022-08-05T00:32:28.216Z,8.75
2022-08-05T00:35:33.236Z,6.40
2022-08-05T00:38:40.641Z,9.88
2022-08-05T00:41:51.739Z,6.93
2022-08-05T00:44:58.370Z,8.80
2022-08-05T00:48:05.960Z,5.72
2022-08-05T00:51:51.504Z,7.97
2022-08-05T00:54:33.844Z,6.93
2022-08-05T00:57:55.477Z,11.57
2022-08-05T01:01:00.163Z,8.45
2022-08-05T01:04:04.012Z,6.13
2022-08-05T01:07:15.012Z,6.20
2022-08-05T01:10:28.979Z,6.03
2022-08-05T01:13:59.010Z,7.65
2022-08-05T01:17:08.084Z,11.32
2022-08-05T01:20:27.517Z,7.25
2022-08-05T01:23:52.991Z,7.28
2022-08-05T01:27:17.889Z,9.32
2022-08-05T01:30:39.103Z,7.63
2022-08-05T01:33:51.908Z,6.75
2022-08-05T01:37:03.952Z,9.23
2022-08-05T01:40:10.591Z,7.53
2022-08-05T01:43:21.935Z,5.63
2022-08-05T01:46:42.466Z,6.63
2022-08-05T01:50:01.494Z,10.90
2022-08-05T01:53:11.258Z,7.13
2022-08-05T01:58:18.879Z,11.73
2022-08-05T01:59:42.069Z,7.70
2022-08-05T02:02:57.562Z,7.30
2022-08-05T02:06:03.550Z,7.95
2022-08-05T02:09:29.800Z,8.77
2022-08-05T02:12:51.034Z,9.38
2022-08-05T02:16:02.830Z,7.15
2022-08-05T02:19:14.935Z,6.95
2022-08-05T02:22:25.811Z,7.95
2022-08-05T02:25:49.092Z,8.85
2022-08-05T02:28:54.473Z,7.63
2022-08-05T02:31:59.198Z,16.83
2022-08-05T02:35:14.553Z,17.00
2022-08-05T02:38:25.408Z,10.88
2022-08-05T02:41:36.441Z,10.02
2022-08-05T02:44:58.289Z,11.93
2022-08-05T02:48:11.710Z,14.02
2022-08-05T02:51:18.350Z,14.07
2022-08-05T02:54:37.173Z,8.40
2022-08-05T02:58:09.164Z,9.82
2022-08-05T03:01:05.856Z,7.57
2022-08-05T03:04:14.568Z,10.75
2022-08-05T03:08:00.821Z,10.52
2022-08-05T03:11:50.051Z,8.23
2022-08-05T03:14:13.449Z,12.52
2022-08-05T03:17:16.797Z,9.55
2022-08-05T03:20:19.823Z,13.63
2022-08-05T03:23:25.742Z,12.23
2022-08-05T03:26:31.123Z,8.90
2022-08-05T03:29:45.972Z,10.68
2022-08-05T03:33:00.825Z,8.00
2022-08-05T03:36:06.726Z,11.38
2022-08-05T03:39:26.635Z,7.57
2022-08-05T03:42:32.787Z,7.55
2022-08-05T03:45:58.215Z,7.30
2022-08-05T03:49:02.221Z,7.82
2022-08-05T03:52:36.992Z,10.50
2022-08-05T03:56:06.027Z,8.15
2022-08-05T03:59:09.263Z,8.38
2022-08-05T04:02:17.387Z,8.98
2022-08-05T04:05:40.213Z,8.13
2022-08-05T04:08:45.015Z,9.05
2022-08-05T04:11:53.018Z,14.30
2022-08-05T04:14:57.703Z,10.10
2022-08-05T04:18:07.229Z,6.60
2022-08-05T04:21:12.544Z,8.13
2022-08-05T04:24:35.718Z,9.30
2022-08-05T04:27:43.882Z,7.53
2022-08-05T04:31:01.553Z,14.43
2022-08-05T04:34:19.697Z,10.82
2022-08-05T04:37:31.579Z,12.80
2022-08-05T04:40:51.337Z,15.30
2022-08-05T04:43:56.107Z,14.13
2022-08-05T04:47:09.162Z,10.90
2022-08-05T04:50:37.257Z,8.82
2022-08-05T04:53:47.498Z,10.70
2022-08-05T04:56:50.599Z,9.25
2022-08-05T05:00:01.209Z,9.75
2022-08-05T05:03:04.724Z,10.45
2022-08-05T05:06:39.152Z,6.80
2022-08-05T05:09:34.658Z,9.48
2022-08-05T05:12:40.561Z,7.90
2022-08-05T05:15:57.895Z,9.82
2022-08-05T05:19:18.608Z,6.75
2022-08-05T05:22:27.044Z,6.80
2022-08-05T05:25:40.577Z,7.53
2022-08-05T05:28:45.137Z,6.50
2022-08-05T05:31:49.665Z,7.82
2022-08-05T05:34:54.196Z,7.00
2022-08-05T05:38:01.661Z,7.70
2022-08-05T05:41:07.549Z,7.10
2022-08-05T05:44:36.955Z,8.60
2022-08-05T05:48:06.831Z,12.50
2022-08-05T05:51:14.993Z,8.75
2022-08-05T05:54:19.685Z,7.18
2022-08-05T05:57:22.936Z,8.75
2022-08-05T06:00:31.510Z,10.80
2022-08-05T06:03:53.605Z,8.27
2022-08-05T06:07:01.425Z,6.90
2022-08-05T06:10:10.147Z,7.18
2022-08-05T06:13:13.691Z,10.98
2022-08-05T06:16:29.347Z,10.73
2022-08-05T06:19:36.642Z,7.10
2022-08-05T06:22:40.485Z,10.30
2022-08-05T06:26:12.309Z,14.45
2022-08-05T06:29:42.789Z,27.95
2022-08-05T06:32:29.938Z,22.63
2022-08-05T06:36:07.270Z,12.60
2022-08-05T06:38:57.880Z,15.10
2022-08-05T06:42:04.176Z,6.68
2022-08-05T06:45:09.641Z,11.07
2022-08-05T06:48:50.373Z,9.07
2022-08-05T06:51:48.233Z,8.15
2022-08-05T06:54:53.300Z,12.75
2022-08-05T06:58:03.446Z,6.75
2022-08-05T07:01:21.024Z,13.43
2022-08-05T07:04:24.827Z,10.07
2022-08-05T07:07:35.496Z,7.85
2022-08-05T07:10:53.467Z,7.57
2022-08-05T07:14:20.027Z,5.32
2022-08-05T07:17:58.538Z,9.75
2022-08-05T07:20:46.784Z,6.35
2022-08-05T07:23:52.370Z,11.25
2022-08-05T07:26:55.575Z,10.60
2022-08-05T07:30:24.410Z,4.45
2022-08-05T07:33:36.544Z,5.97
2022-08-05T07:36:40.769Z,9.50
2022-08-05T07:40:04.063Z,17.40
2022-08-05T07:43:20.190Z,4.63
2022-08-05T07:46:26.041Z,7.38
2022-08-05T07:49:29.501Z,7.00
2022-08-05T07:52:32.481Z,5.55
2022-08-05T07:56:05.218Z,4.32
2022-08-05T07:58:59.823Z,4.40
2022-08-05T08:02:03.349Z,4.18
2022-08-05T08:05:07.227Z,4.60
2022-08-05T08:08:15.171Z,7.10
2022-08-05T08:11:19.711Z,3.92
2022-08-05T08:14:30.816Z,5.05
2022-08-05T08:17:35.263Z,4.20
2022-08-05T08:21:00.371Z,6.75
2022-08-05T08:24:04.946Z,5.72
2022-08-05T08:27:09.997Z,5.50
2022-08-05T08:30:27.677Z,5.05
2022-08-05T08:33:38.290Z,4.28
2022-08-05T08:36:48.856Z,3.35
2022-08-05T08:39:57.956Z,4.18
2022-08-05T08:45:16.101Z,5.30
2022-08-05T08:46:31.393Z,5.55
2022-08-05T08:50:05.720Z,8.13
2022-08-05T08:53:07.847Z,5.28
2022-08-05T08:56:15.711Z,3.47
2022-08-05T08:59:27.619Z,3.47
2022-08-05T09:02:37.115Z,5.78
2022-08-05T09:06:08.010Z,6.50
2022-08-05T09:09:06.365Z,8.75
2022-08-05T09:12:20.396Z,5.65
2022-08-05T09:15:25.863Z,5.28
2022-08-05T09:18:30.056Z,7.93
2022-08-05T09:22:22.594Z,4.53
2022-08-05T09:25:00.803Z,5.45
2022-08-05T09:28:16.471Z,11.63
2022-08-05T09:32:42.204Z,4.50
2022-08-05T09:34:50.723Z,5.95
2022-08-05T09:38:12.289Z,5.75
2022-08-05T09:41:18.836Z,4.22
2022-08-05T09:44:35.881Z,5.65
2022-08-05T09:47:56.295Z,3.85
2022-08-05T09:51:01.764Z,6.35
2022-08-05T09:54:08.483Z,5.07
2022-08-05T09:57:29.555Z,4.93
2022-08-05T10:00:38.709Z,5.22
2022-08-05T10:04:00.128Z,7.15
2022-08-05T10:07:06.139Z,4.93
2022-08-05T10:10:28.179Z,4.28
2022-08-05T10:13:47.435Z,6.78
2022-08-05T10:16:53.425Z,5.32
2022-08-05T10:20:04.317Z,6.20
2022-08-05T10:23:34.691Z,5.53
2022-08-05T10:26:51.266Z,5.35
2022-08-05T10:30:06.317Z,5.95
2022-08-05T10:33:18.968Z,6.65
2022-08-05T10:36:26.027Z,4.82
2022-08-05T10:39:59.180Z,6.60
2022-08-05T10:43:14.886Z,8.90
2022-08-05T10:46:21.357Z,8.20
2022-08-05T10:49:33.447Z,6.00
2022-08-05T10:52:58.728Z,8.57
2022-08-05T10:56:21.311Z,8.10
2022-08-05T11:00:02.766Z,9.95
2022-08-05T11:03:24.858Z,7.22
2022-08-05T11:06:31.084Z,5.72
2022-08-05T11:09:46.868Z,6.28
2022-08-05T11:12:55.322Z,8.43
2022-08-05T11:16:33.966Z,7.47
2022-08-05T11:20:10.871Z,8.57
2022-08-05T11:24:05.750Z,6.97
2022-08-05T11:27:51.491Z,7.68
2022-08-05T11:31:58.457Z,3.55
2022-08-05T11:34:55.318Z,4.65
2022-08-05T11:38:28.945Z,4.18
2022-08-05T11:41:58.090Z,3.97
2022-08-05T11:44:53.832Z,3.38
2022-08-05T11:47:58.872Z,7.82
2022-08-05T11:51:03.040Z,5.55
2022-08-05T11:54:07.143Z,4.53
2022-08-05T11:57:25.516Z,7.38
2022-08-05T12:00:32.591Z,5.75
2022-08-05T12:03:44.572Z,3.50
2022-08-05T12:07:01.779Z,6.45
2022-08-05T12:10:09.634Z,4.80
2022-08-05T12:13:47.667Z,4.38
2022-08-05T12:16:47.191Z,3.63
2022-08-05T12:20:27.240Z,3.35
2022-08-05T12:23:16.653Z,3.88
2022-08-05T12:26:19.936Z,3.05
2022-08-05T12:29:25.448Z,4.22
2022-08-05T12:32:32.361Z,3.47
2022-08-05T12:35:37.153Z,3.17
2022-08-05T12:38:43.317Z,5.32
2022-08-05T12:41:47.594Z,5.40
2022-08-05T12:44:51.787Z,4.57
2022-08-05T12:48:01.552Z,3.10
2022-08-05T12:52:10.511Z,6.00
2022-08-05T12:54:45.711Z,4.60
2022-08-05T12:58:52.426Z,7.78
2022-08-05T13:02:03.682Z,4.63
2022-08-05T13:04:54.304Z,3.35
2022-08-05T13:08:00.252Z,5.93
2022-08-05T13:11:04.437Z,4.15
2022-08-05T13:14:20.369Z,5.25
2022-08-05T13:17:41.437Z,7.90
2022-08-05T13:20:46.805Z,8.23
2022-08-05T13:23:50.537Z,3.80
2022-08-05T13:26:55.348Z,5.35
2022-08-05T13:30:34.474Z,6.70
2022-08-05T13:34:21.361Z,5.15
2022-08-05T13:36:46.758Z,5.28
2022-08-05T13:40:15.212Z,3.72
2022-08-05T13:43:22.168Z,3.75
2022-08-05T13:46:50.744Z,3.67
2022-08-05T13:49:52.374Z,3.53
2022-08-05T13:52:56.792Z,3.60
2022-08-05T13:56:02.257Z,4.63
2022-08-05T13:59:05.988Z,4.72
2022-08-05T14:02:26.580Z,3.40
2022-08-05T14:06:24.820Z,5.70
2022-08-05T14:08:57.002Z,5.28
2022-08-05T14:12:17.271Z,5.38
2022-08-05T14:16:04.718Z,3.10
2022-08-05T14:18:43.959Z,4.43
2022-08-05T14:22:08.794Z,5.47
2022-08-05T14:25:19.224Z,3.78
2022-08-05T14:28:26.697Z,4.55
2022-08-05T14:31:54.232Z,4.10
2022-08-05T14:34:53.744Z,4.60
2022-08-05T14:37:57.976Z,4.53
2022-08-05T14:41:07.862Z,4.78
2022-08-05T14:44:20.612Z,6.15
2022-08-05T14:48:04.093Z,5.53
2022-08-05T14:50:48.744Z,4.18
2022-08-05T14:54:25.925Z,4.68
2022-08-05T14:57:17.703Z,4.65
2022-08-05T15:00:21.402Z,4.15
2022-08-05T15:03:34.124Z,5.97
2022-08-05T15:06:42.262Z,7.03
2022-08-05T15:09:54.541Z,4.90
2022-08-05T15:13:03.736Z,4.82
2022-08-05T15:16:07.636Z,5.40
2022-08-05T15:19:23.381Z,4.80
2022-08-05T15:22:28.222Z,4.82
2022-08-05T15:25:51.006Z,5.25
2022-08-05T15:28:56.217Z,6.55
2022-08-05T15:32:03.267Z,5.70
2022-08-05T15:35:10.716Z,7.13
2022-08-05T15:38:35.663Z,6.07
2022-08-05T15:41:58.121Z,6.38
2022-08-05T15:45:02.999Z,4.97
2022-08-05T15:48:09.891Z,7.43
2022-08-05T15:51:22.406Z,4.75
2022-08-05T15:54:46.324Z,7.03
2022-08-05T15:57:49.616Z,6.22
2022-08-05T16:01:12.009Z,8.45
2022-08-05T16:04:18.109Z,7.80
2022-08-05T16:07:21.260Z,7.60
2022-08-05T16:10:26.875Z,6.80
2022-08-05T16:13:34.217Z,6.82
2022-08-05T16:16:39.662Z,9.57
2022-08-05T16:20:04.220Z,7.45
2022-08-05T16:23:08.459Z,6.20
2022-08-05T16:26:12.813Z,6.10
2022-08-05T16:29:15.856Z,6.07
2022-08-05T16:32:29.097Z,7.38
2022-08-05T16:35:34.624Z,6.47
2022-08-05T16:38:54.418Z,5.75
2022-08-05T16:42:27.858Z,8.73
2022-08-05T16:46:03.824Z,8.50
2022-08-05T16:48:45.775Z,7.57
2022-08-05T16:51:50.961Z,6.13
2022-08-05T16:54:54.519Z,7.55
2022-08-05T16:58:01.444Z,9.25
2022-08-05T17:01:07.087Z,6.88
2022-08-05T17:04:14.932Z,6.78
2022-08-05T17:07:38.961Z,5.30
2022-08-05T17:10:41.690Z,6.65
2022-08-05T17:13:45.897Z,8.70
2022-08-05T17:16:49.398Z,7.53
2022-08-05T17:19:58.226Z,8.73
2022-08-05T17:23:01.227Z,8.35
2022-08-05T17:26:05.804Z,4.53
2022-08-05T17:29:10.223Z,5.32
2022-08-05T17:32:17.063Z,3.92
2022-08-05T17:35:22.546Z,7.72
2022-08-05T17:38:25.540Z,5.05
2022-08-05T17:42:19.890Z,3.60
2022-08-05T17:44:53.012Z,3.22
2022-08-05T17:47:56.473Z,4.63
2022-08-05T17:51:00.885Z,8.38
2022-08-05T17:54:04.119Z,5.43
2022-08-05T17:57:12.057Z,6.53
2022-08-05T18:00:16.005Z,4.25
2022-08-05T18:06:45.729Z,2.90
2022-08-05T18:09:59.739Z,2.90
2022-08-05T18:13:07.571Z,3.22
2022-08-05T18:16:15.367Z,4.47
2022-08-05T18:19:26.045Z,4.78
2022-08-05T18:22:45.907Z,3.25
2022-08-05T18:25:57.492Z,3.55
2022-08-05T18:29:02.296Z,2.38
2022-08-05T18:32:06.972Z,2.90
2022-08-05T18:35:16.943Z,4.60
2022-08-05T18:38:26.444Z,4.82
2022-08-05T18:41:58.088Z,4.47
2022-08-05T18:44:56.612Z,3.17
2022-08-05T18:48:00.279Z,2.72
2022-08-05T18:52:06.034Z,3.53
2022-08-05T18:54:45.778Z,3.10
2022-08-05T18:57:52.665Z,3.40
2022-08-05T19:00:56.756Z,3.90
2022-08-05T19:03:59.740Z,3.25
2022-08-05T19:07:03.119Z,3.50
2022-08-05T19:10:11.857Z,3.25
2022-08-05T19:13:15.999Z,3.33
2022-08-05T19:16:25.094Z,3.40
2022-08-05T19:19:32.275Z,4.18
2022-08-05T19:22:37.250Z,3.22
2022-08-05T19:25:44.450Z,3.30
2022-08-05T19:28:47.420Z,4.72
2022-08-05T19:31:51.503Z,6.93
2022-08-05T19:34:55.767Z,4.07
2022-08-05T19:38:06.711Z,4.93
2022-08-05T19:41:13.054Z,5.47
2022-08-05T19:44:16.216Z,4.53
2022-08-05T19:47:19.695Z,4.10
2022-08-05T19:50:22.748Z,5.35
2022-08-05T19:54:04.453Z,4.97
2022-08-05T19:56:53.888Z,3.88
2022-08-05T20:00:02.392Z,4.53
2022-08-05T20:03:15.066Z,6.45
2022-08-05T20:06:28.705Z,8.43
2022-08-05T20:09:54.503Z,6.68
2022-08-05T20:12:56.958Z,7.22
2022-08-05T20:15:59.954Z,8.77
2022-08-05T20:19:03.377Z,10.77
2022-08-05T20:22:06.544Z,7.93
2022-08-05T20:25:12.831Z,4.45
2022-08-05T20:28:17.204Z,3.53
2022-08-05T20:31:28.433Z,5.55
2022-08-05T20:34:44.987Z,7.95
2022-08-05T20:38:05.832Z,5.47
2022-08-05T20:41:10.969Z,5.50
2022-08-05T20:44:30.583Z,4.80
2022-08-05T20:47:34.152Z,3.95
2022-08-05T20:50:45.527Z,3.45
2022-08-05T20:53:56.727Z,6.85
2022-08-05T20:57:00.321Z,5.38
2022-08-05T21:00:41.523Z,28.63
2022-08-05T21:03:35.033Z,26.95
2022-08-05T21:06:45.035Z,13.48
2022-08-05T21:09:53.825Z,6.05
2022-08-05T21:13:08.268Z,8.88
2022-08-05T21:16:15.634Z,11.55
2022-08-05T21:19:19.076Z,7.38
2022-08-05T21:22:24.017Z,5.40
2022-08-05T21:25:33.844Z,4.90
2022-08-05T21:28:37.379Z,5.38
2022-08-05T21:31:42.865Z,4.55
2022-08-05T21:34:45.914Z,4.45
2022-08-05T21:38:08.918Z,4.40
2022-08-05T21:41:12.020Z,6.13
2022-08-05T21:44:15.485Z,4.60
2022-08-05T21:47:54.942Z,7.50
2022-08-05T21:50:54.114Z,7.15
2022-08-05T21:53:59.631Z,5.38
2022-08-05T21:57:30.799Z,4.95
2022-08-05T22:00:30.962Z,5.53
2022-08-05T22:03:52.139Z,5.07
2022-08-05T22:06:57.088Z,4.95
2022-08-05T22:10:00.495Z,5.15
2022-08-05T22:13:09.200Z,4.97
2022-08-05T22:16:42.148Z,7.30
2022-08-05T22:20:00.579Z,10.13
2022-08-05T22:23:24.468Z,6.70
2022-08-05T22:26:49.821Z,4.13
2022-08-05T22:29:54.310Z,5.18
2022-08-05T22:32:57.349Z,5.43
2022-08-05T22:36:02.462Z,7.25
2022-08-05T22:39:09.598Z,6.38
2022-08-05T22:42:25.364Z,7.63
2022-08-05T22:45:30.680Z,8.90
2022-08-05T22:48:34.228Z,5.53
2022-08-05T22:52:05.527Z,5.03
2022-08-05T22:55:04.462Z,7.13
2022-08-05T22:58:28.152Z,7.25
2022-08-05T23:02:05.081Z,6.57
2022-08-05T23:04:55.109Z,6.68
2022-08-05T23:07:59.606Z,5.20
2022-08-05T23:11:02.739Z,7.07
2022-08-05T23:14:05.805Z,6.32
2022-08-05T23:17:34.887Z,8.52
2022-08-05T23:20:42.208Z,7.55
2022-08-05T23:23:48.008Z,5.60
2022-08-05T23:26:50.987Z,3.80
2022-08-05T23:29:54.112Z,3.75
2022-08-05T23:32:57.699Z,5.57
2022-08-05T23:36:02.175Z,6.03
2022-08-05T23:39:07.188Z,5.75
2022-08-05T23:42:14.468Z,4.32
2022-08-05T23:45:18.146Z,4.18
2022-08-05T23:48:22.808Z,7.28
2022-08-05T23:51:54.042Z,4.95
2022-08-05T23:55:01.905Z,5.72
2022-08-05T23:58:31.651Z,6.90
